KLRD/LRD METAR and TAF weather

Enter ICAO airport designator
Station Type Date Time Source
KLRD METAR 2022/01/19 19:56 UTC NOAA

KLRD 191956Z 32015KT 10SM CLR 29/06 A2989 RMK AO2 SLP119 T02890056


Station Type Date Time Source
KLRD Decoded METAR 2022/01/19 19:56 UTC NOAA

Laredo, Laredo International Airport, TX, United States (KLRD) 27-32-37N 099-27-41W
Jan 19, 2022 - 02:56 PM EST / 2022.01.19 1956 UTC
Wind: from the NW (320 degrees) at 17 MPH (15 KT):0
Visibility: 10 mile(s):0
Sky conditions: clear
Temperature: 84.0 F (28.9 C)
Dew Point: 42.1 F (5.6 C)
Relative Humidity: 22%
Pressure (altimeter): 29.89 in. Hg (1012 hPa)
ob: KLRD 191956Z 32015KT 10SM CLR 29/06 A2989 RMK AO2 SLP119 T02890056
cycle: 20

Station Type Date Time Source
KLRD TAF 2022/01/19 18:24 UTC NOAA

TAF KLRD 191721Z 1918/2018 30009KT P6SM FEW250
FM200600 02020G28KT P6SM SCT020
TEMPO 2007/2010 BKN020
FM201000 36018G25KT P6SM OVC025

Example: see airport list